sensor_id;sensor_type;location;lat;lon;timestamp;pressure;altitude;pressure_sealevel;temperature;humidity
46394;BME280;32099;53.588;10.176;2023-03-21T00:00:41;101210.47;;;8.92;82.78
46394;BME280;32099;53.588;10.176;2023-03-21T00:03:12;101218.31;;;8.95;83.32
46394;BME280;32099;53.588;10.176;2023-03-21T00:05:42;101207.75;;;8.92;83.13
46394;BME280;32099;53.588;10.176;2023-03-21T00:08:13;101207.91;;;8.90;82.94
46394;BME280;32099;53.588;10.176;2023-03-21T00:10:39;101208.44;;;8.94;83.78
46394;BME280;32099;53.588;10.176;2023-03-21T00:13:04;101205.84;;;8.92;83.06
46394;BME280;32099;53.588;10.176;2023-03-21T00:15:29;101206.72;;;8.93;83.56
46394;BME280;32099;53.588;10.176;2023-03-21T00:17:55;101199.75;;;8.90;83.52
46394;BME280;32099;53.588;10.176;2023-03-21T00:20:35;101199.75;;;8.90;83.34
46394;BME280;32099;53.588;10.176;2023-03-21T00:23:01;101198.03;;;8.89;83.14
46394;BME280;32099;53.588;10.176;2023-03-21T00:25:27;101201.59;;;8.90;82.98
46394;BME280;32099;53.588;10.176;2023-03-21T00:27:53;101201.28;;;8.93;83.35
46394;BME280;32099;53.588;10.176;2023-03-21T00:30:18;101194.84;;;8.94;83.24
46394;BME280;32099;53.588;10.176;2023-03-21T00:32:45;101195.53;;;8.96;83.23
46394;BME280;32099;53.588;10.176;2023-03-21T00:35:10;101195.84;;;8.93;83.41
46394;BME280;32099;53.588;10.176;2023-03-21T00:37:36;101192.97;;;8.94;83.21
46394;BME280;32099;53.588;10.176;2023-03-21T00:40:01;101198.25;;;8.96;82.88
46394;BME280;32099;53.588;10.176;2023-03-21T00:42:26;101199.78;;;8.99;82.81
46394;BME280;32099;53.588;10.176;2023-03-21T00:44:51;101193.03;;;9.03;82.67
46394;BME280;32099;53.588;10.176;2023-03-21T00:47:17;101199.47;;;9.02;82.77
46394;BME280;32099;53.588;10.176;2023-03-21T00:49:42;101190.75;;;8.98;83.66
46394;BME280;32099;53.588;10.176;2023-03-21T00:52:08;101192.97;;;8.94;83.29
46394;BME280;32099;53.588;10.176;2023-03-21T00:54:34;101190.09;;;8.96;83.28
46394;BME280;32099;53.588;10.176;2023-03-21T00:57:01;101182.78;;;8.97;83.88
46394;BME280;32099;53.588;10.176;2023-03-21T00:59:27;101187.91;;;9.00;83.02
46394;BME280;32099;53.588;10.176;2023-03-21T01:01:53;101182.59;;;8.98;83.57
46394;BME280;32099;53.588;10.176;2023-03-21T01:04:19;101176.31;;;8.98;83.31
46394;BME280;32099;53.588;10.176;2023-03-21T01:06:45;101176.00;;;9.01;83.41
46394;BME280;32099;53.588;10.176;2023-03-21T01:09:12;101173.44;;;8.99;83.33
46394;BME280;32099;53.588;10.176;2023-03-21T01:11:40;101174.44;;;8.98;83.24
46394;BME280;32099;53.588;10.176;2023-03-21T01:14:06;101173.13;;;9.02;83.36
46394;BME280;32099;53.588;10.176;2023-03-21T01:16:31;101174.31;;;9.00;83.37
46394;BME280;32099;53.588;10.176;2023-03-21T01:18:59;101166.97;;;9.00;83.29
46394;BME280;32099;53.588;10.176;2023-03-21T01:21:25;101176.69;;;9.03;83.40
46394;BME280;32099;53.588;10.176;2023-03-21T01:23:50;101173.28;;;9.01;84.21
46394;BME280;32099;53.588;10.176;2023-03-21T01:26:16;101166.47;;;8.97;83.38
46394;BME280;32099;53.588;10.176;2023-03-21T01:28:42;101166.13;;;9.00;83.15
46394;BME280;32099;53.588;10.176;2023-03-21T01:31:09;101161.22;;;9.03;83.50
46394;BME280;32099;53.588;10.176;2023-03-21T01:33:36;101163.25;;;9.01;83.53
46394;BME280;32099;53.588;10.176;2023-03-21T01:36:02;101165.97;;;9.01;83.49
46394;BME280;32099;53.588;10.176;2023-03-21T01:38:28;101172.09;;;9.03;83.05
46394;BME280;32099;53.588;10.176;2023-03-21T01:40:53;101163.75;;;9.05;83.23
46394;BME280;32099;53.588;10.176;2023-03-21T01:48:45;101169.06;;;9.06;83.45
46394;BME280;32099;53.588;10.176;2023-03-21T01:51:13;101166.16;;;9.08;83.48
46394;BME280;32099;53.588;10.176;2023-03-21T01:53:38;101167.34;;;9.05;83.29
46394;BME280;32099;53.588;10.176;2023-03-21T01:56:07;101157.31;;;9.06;83.21
46394;BME280;32099;53.588;10.176;2023-03-21T01:58:41;101157.00;;;9.09;83.57
46394;BME280;32099;53.588;10.176;2023-03-21T02:01:09;101155.28;;;9.08;83.30
46394;BME280;32099;53.588;10.176;2023-03-21T02:03:35;101151.03;;;9.05;84.38
46394;BME280;32099;53.588;10.176;2023-03-21T02:06:13;101153.22;;;9.02;84.56
46394;BME280;32099;53.588;10.176;2023-03-21T02:08:44;101147.94;;;9.00;84.05
46394;BME280;32099;53.588;10.176;2023-03-21T02:11:09;101146.78;;;9.03;83.96
46394;BME280;32099;53.588;10.176;2023-03-21T02:13:36;101147.63;;;9.03;84.06
46394;BME280;32099;53.588;10.176;2023-03-21T02:18:54;101147.31;;;9.06;85.39
46394;BME280;32099;53.588;10.176;2023-03-21T02:22:10;101134.53;;;9.07;83.97
46394;BME280;32099;53.588;10.176;2023-03-21T02:27:45;101132.81;;;9.06;83.87
46394;BME280;32099;53.588;10.176;2023-03-21T02:30:34;101127.25;;;9.07;84.36
46394;BME280;32099;53.588;10.176;2023-03-21T02:36:21;101130.63;;;9.09;83.97
46394;BME280;32099;53.588;10.176;2023-03-21T02:39:11;101125.84;;;9.03;85.04
46394;BME280;32099;53.588;10.176;2023-03-21T02:41:58;101127.88;;;9.01;84.66
46394;BME280;32099;53.588;10.176;2023-03-21T02:44:34;101123.81;;;8.97;85.15
46394;BME280;32099;53.588;10.176;2023-03-21T02:47:14;101119.91;;;9.00;84.49
46394;BME280;32099;53.588;10.176;2023-03-21T02:49:55;101125.00;;;9.03;84.62
46394;BME280;32099;53.588;10.176;2023-03-21T02:52:27;101124.53;;;9.07;84.26
46394;BME280;32099;53.588;10.176;2023-03-21T02:54:55;101128.94;;;9.08;84.21
46394;BME280;32099;53.588;10.176;2023-03-21T02:57:22;101127.25;;;9.07;84.34
46394;BME280;32099;53.588;10.176;2023-03-21T02:59:47;101122.81;;;9.06;84.38
46394;BME280;32099;53.588;10.176;2023-03-21T03:02:14;101116.38;;;9.07;84.66
46394;BME280;32099;53.588;10.176;2023-03-21T03:04:44;101124.34;;;9.09;84.45
46394;BME280;32099;53.588;10.176;2023-03-21T03:09:58;101124.16;;;9.10;85.44
46394;BME280;32099;53.588;10.176;2023-03-21T03:12:45;101117.72;;;9.11;84.83
46394;BME280;32099;53.588;10.176;2023-03-21T03:15:29;101116.88;;;9.11;84.00
46394;BME280;32099;53.588;10.176;2023-03-21T03:19:10;101115.69;;;9.14;84.55
46394;BME280;32099;53.588;10.176;2023-03-21T03:23:56;101108.53;;;9.13;85.47
46394;BME280;32099;53.588;10.176;2023-03-21T03:26:28;101108.03;;;9.09;84.58
46394;BME280;32099;53.588;10.176;2023-03-21T03:29:07;101102.41;;;9.10;84.42
46394;BME280;32099;53.588;10.176;2023-03-21T03:31:40;101100.56;;;9.11;84.58
46394;BME280;32099;53.588;10.176;2023-03-21T03:34:12;101102.25;;;9.12;84.97
46394;BME280;32099;53.588;10.176;2023-03-21T03:36:44;101108.41;;;9.14;84.55
46394;BME280;32099;53.588;10.176;2023-03-21T03:39:15;101095.44;;;9.16;84.37
46394;BME280;32099;53.588;10.176;2023-03-21T03:41:47;101098.88;;;9.18;84.83
46394;BME280;32099;53.588;10.176;2023-03-21T03:44:18;101094.44;;;9.17;84.40
46394;BME280;32099;53.588;10.176;2023-03-21T03:46:46;101091.56;;;9.19;84.44
46394;BME280;32099;53.588;10.176;2023-03-21T03:49:20;101090.72;;;9.18;84.73
46394;BME280;32099;53.588;10.176;2023-03-21T03:52:23;101085.25;;;9.18;84.83
46394;BME280;32099;53.588;10.176;2023-03-21T03:54:50;101086.13;;;9.19;84.70
46394;BME280;32099;53.588;10.176;2023-03-21T03:57:16;101094.28;;;9.19;85.11
46394;BME280;32099;53.588;10.176;2023-03-21T03:59:44;101094.44;;;9.17;84.44
46394;BME280;32099;53.588;10.176;2023-03-21T04:02:10;101094.44;;;9.17;85.57
46394;BME280;32099;53.588;10.176;2023-03-21T04:04:36;101093.59;;;9.17;84.67
46394;BME280;32099;53.588;10.176;2023-03-21T04:07:02;101097.69;;;9.21;84.44
46394;BME280;32099;53.588;10.176;2023-03-21T04:09:28;101095.81;;;9.21;84.71
46394;BME280;32099;53.588;10.176;2023-03-21T04:11:55;101093.94;;;9.22;85.33
46394;BME280;32099;53.588;10.176;2023-03-21T04:14:21;101088.84;;;9.19;85.17
46394;BME280;32099;53.588;10.176;2023-03-21T04:16:46;101092.59;;;9.18;84.64
46394;BME280;32099;53.588;10.176;2023-03-21T04:19:11;101094.94;;;9.21;84.96
46394;BME280;32099;53.588;10.176;2023-03-21T04:21:37;101094.81;;;9.22;84.94
46394;BME280;32099;53.588;10.176;2023-03-21T04:24:03;101089.38;;;9.22;84.79
46394;BME280;32099;53.588;10.176;2023-03-21T04:26:29;101095.81;;;9.21;85.61
46394;BME280;32099;53.588;10.176;2023-03-21T04:28:57;101090.72;;;9.18;85.46
46394;BME280;32099;53.588;10.176;2023-03-21T04:31:27;101093.59;;;9.17;85.25
46394;BME280;32099;53.588;10.176;2023-03-21T04:33:58;101093.59;;;9.17;85.29
46394;BME280;32099;53.588;10.176;2023-03-21T04:36:25;101087.16;;;9.18;84.87
46394;BME280;32099;53.588;10.176;2023-03-21T04:38:54;101079.50;;;9.21;85.63
46394;BME280;32099;53.588;10.176;2023-03-21T04:41:24;101085.44;;;9.17;85.60
46394;BME280;32099;53.588;10.176;2023-03-21T04:43:50;101090.88;;;9.17;85.40
46394;BME280;32099;53.588;10.176;2023-03-21T04:46:16;101083.56;;;9.17;85.34
46394;BME280;32099;53.588;10.176;2023-03-21T04:48:41;101091.56;;;9.19;85.12
46394;BME280;32099;53.588;10.176;2023-03-21T04:51:06;101087.66;;;9.21;85.54
46394;BME280;32099;53.588;10.176;2023-03-21T04:53:32;101083.94;;;9.22;85.76
46394;BME280;32099;53.588;10.176;2023-03-21T04:55:57;101089.50;;;9.21;85.78
46394;BME280;32099;53.588;10.176;2023-03-21T04:58:22;101094.13;;;9.20;86.11
46394;BME280;32099;53.588;10.176;2023-03-21T05:00:48;101087.66;;;9.21;85.43
46394;BME280;32099;53.588;10.176;2023-03-21T05:03:16;101087.47;;;9.23;85.58
46394;BME280;32099;53.588;10.176;2023-03-21T05:05:44;101080.69;;;9.27;85.38
46394;BME280;32099;53.588;10.176;2023-03-21T05:08:10;101081.41;;;9.29;85.74
46394;BME280;32099;53.588;10.176;2023-03-21T05:10:36;101081.53;;;9.27;85.03
46394;BME280;32099;53.588;10.176;2023-03-21T05:13:01;101082.41;;;9.28;85.69
46394;BME280;32099;53.588;10.176;2023-03-21T05:15:26;101084.44;;;9.26;85.40
46394;BME280;32099;53.588;10.176;2023-03-21T05:17:52;101088.69;;;9.29;85.34
46394;BME280;32099;53.588;10.176;2023-03-21T05:20:17;101087.84;;;9.28;85.66
46394;BME280;32099;53.588;10.176;2023-03-21T05:22:43;101081.53;;;9.27;85.74
46394;BME280;32099;53.588;10.176;2023-03-21T05:25:10;101078.31;;;9.24;85.34
46394;BME280;32099;53.588;10.176;2023-03-21T05:27:37;101082.91;;;9.23;85.57
46394;BME280;32099;53.588;10.176;2023-03-21T05:30:13;101081.72;;;9.26;85.35
46394;BME280;32099;53.588;10.176;2023-03-21T05:32:41;101084.63;;;9.24;85.39
46394;BME280;32099;53.588;10.176;2023-03-21T05:35:07;101085.44;;;9.25;85.76
46394;BME280;32099;53.588;10.176;2023-03-21T05:37:32;101082.72;;;9.25;85.93
46394;BME280;32099;53.588;10.176;2023-03-21T05:39:58;101074.25;;;9.28;85.65
46394;BME280;32099;53.588;10.176;2023-03-21T05:42:23;101069.31;;;9.32;85.70
46394;BME280;32099;53.588;10.176;2023-03-21T05:44:49;101065.75;;;9.31;85.55
46394;BME280;32099;53.588;10.176;2023-03-21T05:47:15;101074.94;;;9.30;85.86
46394;BME280;32099;53.588;10.176;2023-03-21T05:49:43;101066.78;;;9.30;85.66
46394;BME280;32099;53.588;10.176;2023-03-21T05:52:09;101064.88;;;9.31;86.26
46394;BME280;32099;53.588;10.176;2023-03-21T05:54:36;101063.03;;;9.31;85.67
46394;BME280;32099;53.588;10.176;2023-03-21T05:57:02;101061.16;;;9.32;87.23
46394;BME280;32099;53.588;10.176;2023-03-21T05:59:28;101066.78;;;9.30;85.88
46394;BME280;32099;53.588;10.176;2023-03-21T06:01:53;101063.03;;;9.31;86.07
46394;BME280;32099;53.588;10.176;2023-03-21T06:04:19;101064.19;;;9.29;86.14
46394;BME280;32099;53.588;10.176;2023-03-21T06:06:44;101064.06;;;9.30;86.10
46394;BME280;32099;53.588;10.176;2023-03-21T06:09:10;101072.88;;;9.32;86.28
46394;BME280;32099;53.588;10.176;2023-03-21T06:11:35;101068.13;;;9.34;86.29
46394;BME280;32099;53.588;10.176;2023-03-21T06:14:02;101073.56;;;9.34;86.50
46394;BME280;32099;53.588;10.176;2023-03-21T06:16:28;101065.06;;;9.37;86.09
46394;BME280;32099;53.588;10.176;2023-03-21T06:18:54;101068.47;;;9.39;86.67
46394;BME280;32099;53.588;10.176;2023-03-21T06:21:20;101069.19;;;9.41;87.78
46394;BME280;32099;53.588;10.176;2023-03-21T06:23:47;101061.66;;;9.44;86.76
46394;BME280;32099;53.588;10.176;2023-03-21T06:26:15;101065.94;;;9.46;87.11
46394;BME280;32099;53.588;10.176;2023-03-21T06:28:43;101063.56;;;9.51;86.19
46394;BME280;32099;53.588;10.176;2023-03-21T06:31:09;101055.75;;;9.56;86.65
46394;BME280;32099;53.588;10.176;2023-03-21T06:33:34;101052.84;;;9.58;87.21
46394;BME280;32099;53.588;10.176;2023-03-21T06:35:59;101049.44;;;9.56;86.69
46394;BME280;32099;53.588;10.176;2023-03-21T06:38:25;101051.00;;;9.59;87.57
46394;BME280;32099;53.588;10.176;2023-03-21T06:40:50;101049.97;;;9.60;87.48
46394;BME280;32099;53.588;10.176;2023-03-21T06:43:16;101048.09;;;9.60;87.37
46394;BME280;32099;53.588;10.176;2023-03-21T06:45:41;101046.88;;;9.63;88.19
46394;BME280;32099;53.588;10.176;2023-03-21T06:48:07;101045.03;;;9.63;87.66
46394;BME280;32099;53.588;10.176;2023-03-21T06:50:33;101048.78;;;9.62;87.67
46394;BME280;32099;53.588;10.176;2023-03-21T06:52:58;101057.09;;;9.61;87.54
46394;BME280;32099;53.588;10.176;2023-03-21T06:55:24;101062.53;;;9.61;87.44
46394;BME280;32099;53.588;10.176;2023-03-21T06:57:57;101055.41;;;9.60;87.28
46394;BME280;32099;53.588;10.176;2023-03-21T07:00:23;101053.72;;;9.59;87.70
46394;BME280;32099;53.588;10.176;2023-03-21T07:02:49;101050.81;;;9.60;87.73
46394;BME280;32099;53.588;10.176;2023-03-21T07:05:15;101060.16;;;9.66;87.79
46394;BME280;32099;53.588;10.176;2023-03-21T07:07:41;101060.53;;;9.71;87.25
46394;BME280;32099;53.588;10.176;2023-03-21T07:10:07;101066.47;;;9.75;87.25
46394;BME280;32099;53.588;10.176;2023-03-21T07:12:33;101060.69;;;9.78;87.40
46394;BME280;32099;53.588;10.176;2023-03-21T07:15:00;101070.72;;;9.77;87.02
46394;BME280;32099;53.588;10.176;2023-03-21T07:17:26;101065.97;;;9.79;87.20
46394;BME280;32099;53.588;10.176;2023-03-21T07:19:52;101057.47;;;9.82;86.89
46394;BME280;32099;53.588;10.176;2023-03-21T07:22:17;101054.75;;;9.82;87.20
46394;BME280;32099;53.588;10.176;2023-03-21T07:24:42;101060.00;;;9.84;87.24
46394;BME280;32099;53.588;10.176;2023-03-21T07:27:08;101054.75;;;9.82;87.60
46394;BME280;32099;53.588;10.176;2023-03-21T07:29:33;101053.34;;;9.86;86.94
46394;BME280;32099;53.588;10.176;2023-03-21T07:31:58;101058.28;;;9.91;87.79
46394;BME280;32099;53.588;10.176;2023-03-21T07:34:24;101061.69;;;9.93;87.36
46394;BME280;32099;53.588;10.176;2023-03-21T07:36:51;101063.41;;;9.94;86.68
46394;BME280;32099;53.588;10.176;2023-03-21T07:39:16;101056.75;;;9.97;87.07
46394;BME280;32099;53.588;10.176;2023-03-21T07:41:41;101059.47;;;9.97;88.22
46394;BME280;32099;53.588;10.176;2023-03-21T07:44:07;101064.09;;;9.96;86.91
46394;BME280;32099;53.588;10.176;2023-03-21T07:46:32;101063.06;;;9.97;86.93
46394;BME280;32099;53.588;10.176;2023-03-21T07:48:57;101062.72;;;10.00;86.68
46394;BME280;32099;53.588;10.176;2023-03-21T07:51:23;101057.78;;;10.04;87.23
46394;BME280;32099;53.588;10.176;2023-03-21T07:53:48;101058.47;;;10.06;86.76
46394;BME280;32099;53.588;10.176;2023-03-21T07:56:16;101057.25;;;10.09;87.20
46394;BME280;32099;53.588;10.176;2023-03-21T07:58:41;101060.00;;;10.09;88.72
46394;BME280;32099;53.588;10.176;2023-03-21T08:01:07;101061.00;;;10.08;87.27
46394;BME280;32099;53.588;10.176;2023-03-21T08:03:32;101061.50;;;10.11;87.18
46394;BME280;32099;53.588;10.176;2023-03-21T08:05:58;101054.53;;;10.09;87.02
46394;BME280;32099;53.588;10.176;2023-03-21T08:08:23;101058.28;;;10.08;87.54
46394;BME280;32099;53.588;10.176;2023-03-21T08:10:49;101057.09;;;10.10;87.00
46394;BME280;32099;53.588;10.176;2023-03-21T08:13:14;101057.59;;;10.14;86.78
46394;BME280;32099;53.588;10.176;2023-03-21T08:15:39;101056.56;;;10.15;87.75
46394;BME280;32099;53.588;10.176;2023-03-21T08:18:06;101054.84;;;10.14;87.72
46394;BME280;32099;53.588;10.176;2023-03-21T08:20:32;101059.66;;;10.12;87.42
46394;BME280;32099;53.588;10.176;2023-03-21T08:22:57;101056.75;;;10.13;87.07
46394;BME280;32099;53.588;10.176;2023-03-21T08:25:23;101055.88;;;10.13;87.38
46394;BME280;32099;53.588;10.176;2023-03-21T08:27:49;101054.34;;;10.10;87.16
46394;BME280;32099;53.588;10.176;2023-03-21T08:30:19;101052.13;;;10.14;86.98
46394;BME280;32099;53.588;10.176;2023-03-21T08:32:47;101054.72;;;10.15;86.97
46394;BME280;32099;53.588;10.176;2023-03-21T08:35:14;101048.06;;;10.18;87.07
46394;BME280;32099;53.588;10.176;2023-03-21T08:37:41;101053.16;;;10.21;86.90
46394;BME280;32099;53.588;10.176;2023-03-21T08:40:08;101053.31;;;10.28;86.68
46394;BME280;32099;53.588;10.176;2023-03-21T08:42:37;101047.34;;;10.32;86.69
46394;BME280;32099;53.588;10.176;2023-03-21T08:45:03;101039.50;;;10.38;86.61
46394;BME280;32099;53.588;10.176;2023-03-21T08:47:29;101044.63;;;10.41;86.72
46394;BME280;32099;53.588;10.176;2023-03-21T08:49:55;101047.84;;;10.44;86.71
46394;BME280;32099;53.588;10.176;2023-03-21T08:52:21;101047.31;;;10.49;86.92
46394;BME280;32099;53.588;10.176;2023-03-21T08:54:46;101040.84;;;10.50;86.40
46394;BME280;32099;53.588;10.176;2023-03-21T08:57:12;101039.47;;;10.54;86.30
46394;BME280;32099;53.588;10.176;2023-03-21T08:59:38;101045.22;;;10.59;86.59
46394;BME280;32099;53.588;10.176;2023-03-21T09:02:04;101041.47;;;10.60;86.65
46394;BME280;32099;53.588;10.176;2023-03-21T09:04:29;101048.63;;;10.61;86.62
46394;BME280;32099;53.588;10.176;2023-03-21T09:06:55;101042.00;;;10.64;86.50
46394;BME280;32099;53.588;10.176;2023-03-21T09:09:20;101048.09;;;10.66;86.35
46394;BME280;32099;53.588;10.176;2023-03-21T09:11:46;101048.78;;;10.68;86.61
46394;BME280;32099;53.588;10.176;2023-03-21T09:14:11;101043.81;;;10.72;86.48
46394;BME280;32099;53.588;10.176;2023-03-21T09:16:36;101036.31;;;10.74;86.09
46394;BME280;32099;53.588;10.176;2023-03-21T09:19:02;101047.72;;;10.77;86.82
46394;BME280;32099;53.588;10.176;2023-03-21T09:21:28;101045.53;;;10.73;86.11
46394;BME280;32099;53.588;10.176;2023-03-21T09:23:54;101048.25;;;10.73;86.72
46394;BME280;32099;53.588;10.176;2023-03-21T09:26:22;101042.81;;;10.73;86.43
46394;BME280;32099;53.588;10.176;2023-03-21T09:28:49;101045.91;;;10.70;87.26
46394;BME280;32099;53.588;10.176;2023-03-21T09:31:14;101035.00;;;10.70;86.71
46394;BME280;32099;53.588;10.176;2023-03-21T09:33:45;101043.47;;;10.75;86.65
46394;BME280;32099;53.588;10.176;2023-03-21T09:36:11;101050.63;;;10.76;86.96
46394;BME280;32099;53.588;10.176;2023-03-21T09:38:41;101045.53;;;10.73;86.58
46394;BME280;32099;53.588;10.176;2023-03-21T09:41:16;101041.97;;;10.72;87.12
46394;BME280;32099;53.588;10.176;2023-03-21T09:46:50;101040.59;;;10.68;87.87
46394;BME280;32099;53.588;10.176;2023-03-21T09:49:39;101039.25;;;10.72;87.88
46394;BME280;32099;53.588;10.176;2023-03-21T09:52:13;101043.28;;;10.76;87.20
46394;BME280;32099;53.588;10.176;2023-03-21T09:54:44;101038.34;;;10.80;87.70
46394;BME280;32099;53.588;10.176;2023-03-21T09:57:14;101031.34;;;10.77;87.81
46394;BME280;32099;53.588;10.176;2023-03-21T09:59:43;101037.69;;;10.78;87.46
46394;BME280;32099;53.588;10.176;2023-03-21T10:02:32;101035.44;;;10.82;86.94
46394;BME280;32099;53.588;10.176;2023-03-21T10:07:50;101030.56;;;11.00;86.54
46394;BME280;32099;53.588;10.176;2023-03-21T10:10:26;101027.97;;;11.07;87.36
46394;BME280;32099;53.588;10.176;2023-03-21T10:12:54;101032.94;;;11.03;87.22
46394;BME280;32099;53.588;10.176;2023-03-21T10:15:21;101026.66;;;11.03;88.04
46394;BME280;32099;53.588;10.176;2023-03-21T10:17:50;101027.47;;;11.03;86.88
46394;BME280;32099;53.588;10.176;2023-03-21T10:20:24;101024.06;;;11.09;86.75
46394;BME280;32099;53.588;10.176;2023-03-21T10:22:53;101018.19;;;11.21;86.60
46394;BME280;32099;53.588;10.176;2023-03-21T10:25:21;101015.75;;;11.26;86.85
46394;BME280;32099;53.588;10.176;2023-03-21T10:27:52;101005.69;;;11.26;86.93
46394;BME280;32099;53.588;10.176;2023-03-21T10:30:23;101011.97;;;11.27;88.31
46394;BME280;32099;53.588;10.176;2023-03-21T10:32:55;101009.56;;;11.32;87.11
46394;BME280;32099;53.588;10.176;2023-03-21T10:35:23;101004.19;;;11.39;86.79
46394;BME280;32099;53.588;10.176;2023-03-21T10:37:49;101007.81;;;11.39;86.02
46394;BME280;32099;53.588;10.176;2023-03-21T10:40:17;101011.88;;;11.44;85.90
46394;BME280;32099;53.588;10.176;2023-03-21T10:42:43;101006.91;;;11.47;86.42
46394;BME280;32099;53.588;10.176;2023-03-21T10:45:13;101012.72;;;11.44;86.11
46394;BME280;32099;53.588;10.176;2023-03-21T10:47:41;101008.09;;;11.45;85.77
46394;BME280;32099;53.588;10.176;2023-03-21T10:50:10;101014.41;;;11.45;86.31
46394;BME280;32099;53.588;10.176;2023-03-21T10:52:49;101008.63;;;11.40;85.88
46394;BME280;32099;53.588;10.176;2023-03-21T10:55:19;101005.25;;;11.38;85.86
46394;BME280;32099;53.588;10.176;2023-03-21T10:57:52;101005.91;;;11.40;86.30
46394;BME280;32099;53.588;10.176;2023-03-21T11:00:22;101000.94;;;11.44;87.07
46394;BME280;32099;53.588;10.176;2023-03-21T11:02:51;100995.97;;;11.47;86.45
46394;BME280;32099;53.588;10.176;2023-03-21T11:05:23;100995.50;;;11.44;86.62
46394;BME280;32099;53.588;10.176;2023-03-21T11:07:58;100997.72;;;11.40;86.03
46394;BME280;32099;53.588;10.176;2023-03-21T11:10:49;100991.91;;;11.43;86.31
46394;BME280;32099;53.588;10.176;2023-03-21T11:13:17;100987.66;;;11.40;87.09
46394;BME280;32099;53.588;10.176;2023-03-21T11:15:51;100987.00;;;11.38;86.52
46394;BME280;32099;53.588;10.176;2023-03-21T11:18:22;100984.72;;;11.42;86.48
46394;BME280;32099;53.588;10.176;2023-03-21T11:20:53;100985.59;;;11.42;87.11
46394;BME280;32099;53.588;10.176;2023-03-21T11:23:23;100973.66;;;11.44;87.18
46394;BME280;32099;53.588;10.176;2023-03-21T11:25:50;100987.66;;;11.40;86.55
46394;BME280;32099;53.588;10.176;2023-03-21T11:28:20;100984.63;;;11.35;87.30
46394;BME280;32099;53.588;10.176;2023-03-21T11:30:55;100979.69;;;11.31;87.82
46394;BME280;32099;53.588;10.176;2023-03-21T11:33:24;100976.81;;;11.32;87.36
46394;BME280;32099;53.588;10.176;2023-03-21T11:36:01;100979.34;;;11.34;87.26
46394;BME280;32099;53.588;10.176;2023-03-21T11:38:40;100969.47;;;11.33;87.58
46394;BME280;32099;53.588;10.176;2023-03-21T11:41:05;100971.72;;;11.29;87.97
46394;BME280;32099;53.588;10.176;2023-03-21T11:43:34;100977.16;;;11.29;88.45
46394;BME280;32099;53.588;10.176;2023-03-21T11:48:50;100959.00;;;11.36;87.50
46394;BME280;32099;53.588;10.176;2023-03-21T11:56:46;100958.56;;;11.48;87.99
46394;BME280;32099;53.588;10.176;2023-03-21T12:05:01;100951.72;;;11.52;86.90
46394;BME280;32099;53.588;10.176;2023-03-21T12:07:36;100944.19;;;11.54;87.99
46394;BME280;32099;53.588;10.176;2023-03-21T12:19:11;100930.06;;;11.50;88.21
46394;BME280;32099;53.588;10.176;2023-03-21T12:21:43;100933.63;;;11.51;88.15
46394;BME280;32099;53.588;10.176;2023-03-21T12:24:29;100931.03;;;11.57;88.72
46394;BME280;32099;53.588;10.176;2023-03-21T12:35:43;100922.75;;;11.81;86.42
46394;BME280;32099;53.588;10.176;2023-03-21T12:38:14;100916.44;;;11.80;86.26
46394;BME280;32099;53.588;10.176;2023-03-21T12:43:36;100907.13;;;11.89;87.22
46394;BME280;32099;53.588;10.176;2023-03-21T12:46:43;100913.63;;;11.88;86.47
46394;BME280;32099;53.588;10.176;2023-03-21T12:49:13;100901.84;;;11.88;85.91
46394;BME280;32099;53.588;10.176;2023-03-21T12:51:49;100893.47;;;11.89;86.46
46394;BME280;32099;53.588;10.176;2023-03-21T12:54:28;100894.13;;;11.92;85.99
46394;BME280;32099;53.588;10.176;2023-03-21T12:57:05;100895.16;;;11.91;86.61
46394;BME280;32099;53.588;10.176;2023-03-21T12:59:40;100892.13;;;11.85;86.47
46394;BME280;32099;53.588;10.176;2023-03-21T13:02:28;100887.22;;;11.81;86.12
46394;BME280;32099;53.588;10.176;2023-03-21T13:04:58;100891.31;;;11.85;86.53
46394;BME280;32099;53.588;10.176;2023-03-21T13:07:36;100887.53;;;11.86;86.52
46394;BME280;32099;53.588;10.176;2023-03-21T13:10:11;100881.03;;;11.87;86.71
46394;BME280;32099;53.588;10.176;2023-03-21T13:12:41;100875.28;;;11.82;87.58
46394;BME280;32099;53.588;10.176;2023-03-21T13:15:17;100875.19;;;11.75;86.50
46394;BME280;32099;53.588;10.176;2023-03-21T13:17:56;100877.63;;;11.70;86.33
46394;BME280;32099;53.588;10.176;2023-03-21T13:20:31;100870.28;;;11.70;87.52
46394;BME280;32099;53.588;10.176;2023-03-21T13:23:05;100855.69;;;11.63;87.22
46394;BME280;32099;53.588;10.176;2023-03-21T13:25:32;100868.56;;;11.69;86.59
46394;BME280;32099;53.588;10.176;2023-03-21T13:28:03;100864.81;;;11.70;86.50
46394;BME280;32099;53.588;10.176;2023-03-21T13:30:29;100863.31;;;11.68;87.15
46394;BME280;32099;53.588;10.176;2023-03-21T13:33:15;100857.00;;;11.67;87.49
46394;BME280;32099;53.588;10.176;2023-03-21T13:35:51;100854.09;;;11.69;87.03
46394;BME280;32099;53.588;10.176;2023-03-21T13:38:25;100858.97;;;11.73;87.45
46394;BME280;32099;53.588;10.176;2023-03-21T13:40:57;100854.91;;;11.69;87.03
46394;BME280;32099;53.588;10.176;2023-03-21T13:43:33;100849.84;;;11.66;86.87
46394;BME280;32099;53.588;10.176;2023-03-21T13:56:47;100851.09;;;11.79;87.89
46394;BME280;32099;53.588;10.176;2023-03-21T14:02:22;100845.13;;;11.75;89.36
46394;BME280;32099;53.588;10.176;2023-03-21T14:04:52;100837.88;;;11.82;89.65
46394;BME280;32099;53.588;10.176;2023-03-21T14:07:27;100839.00;;;11.88;89.59
46394;BME280;32099;53.588;10.176;2023-03-21T14:09:56;100830.97;;;11.86;88.45